الصفحة الرئيسية
METAR-TAF:

METAR-TAF

مطار :

مطار جيبوتي الدولي

جيبوتي, جيبوتي

دائرة عرض: 11-33N, خط طول: 043-10E, ارتفاع: 49 متر

METAR: مفقودة

زمن: 15:26 (12:26 UTC)

توقعات

تاريخ ووقت الإصدار 1ساعة و 26 دقيقة قبل الساعة 11:00UTC
التوقعات صالحة من20 الساعة 12 UTC إلى 21 الساعة 12 UTC
ريح 10 عقدة من الشرق تتزايد حتى 15 عقدة
الرؤية 10 كم أو أكثر
غيوم متفرقة على ارتفاع 2300 قدم
غيوم متفرقة على ارتفاع 3000 قدم
أصبح
من 20 الساعة 15 UTC إلى 20 الساعة 21 UTC
ريح 10 عقدة من الشرق
غيوم قليلة على ارتفاع 2300 قدم
غيوم قليلة على ارتفاع 13300 قدم
أصبح
من 21 الساعة 00 UTC إلى 21 الساعة 06 UTC
ريح 10 عقدة من الجنوب الشرقي
غيوم متفرقة على ارتفاع 2000 قدم
غيوم متفرقة على ارتفاع 13300 قدم

TAF: HDAM 201100Z 2012/2112 09010G15KT 9999 SCT023 SCT030 BECMG 2015/2021 08010KT FEW023 FEW133 BECMG 2100/2106 14010KT SCT020 SCT133

أرصاد الطقس والتوقعات من أكثر من 4000 مطار (تقارير الطقس للمطار METAR والتنبؤ بالطقس بالمطارTAF).

المحطات المتاحة هي النقط الصفراء والحمراء على الخريطة.

حرك المؤشر فوق النقطة لمعرفة اسم المحطة.

ثم انقر لمعرفة أرصاد وتوقعات الطقس.

لتغيير الخارطة: اضغط على الأزرار الخضراء مع رمز الصليب الأسود للتكبير. على الزر الأخضر مع شرطة للتصغير، أو على الأسهم الخضراء للخرائط المجاورة.


METAR-TAF: